createdAt,value
2023-04-17T00:00:54.245Z,15.88
2023-04-17T00:03:21.187Z,15.73
2023-04-17T00:05:49.121Z,16.52
2023-04-17T00:08:16.412Z,15.32
2023-04-17T00:10:44.431Z,15.88
2023-04-17T00:13:14.069Z,15.88
2023-04-17T00:15:40.908Z,15.93
2023-04-17T00:18:08.110Z,14.93
2023-04-17T00:20:34.838Z,14.35
2023-04-17T00:23:02.081Z,15.30
2023-04-17T00:25:28.967Z,15.75
2023-04-17T00:27:55.947Z,15.88
2023-04-17T00:30:25.023Z,16.15
2023-04-17T00:32:51.924Z,17.20
2023-04-17T00:35:19.152Z,16.73
2023-04-17T00:37:46.024Z,16.20
2023-04-17T00:40:13.812Z,15.65
2023-04-17T00:42:40.863Z,13.95
2023-04-17T00:45:11.040Z,15.18
2023-04-17T00:47:38.883Z,16.13
2023-04-17T00:50:06.444Z,16.20
2023-04-17T00:52:33.660Z,14.93
2023-04-17T00:55:00.723Z,14.98
2023-04-17T00:57:31.743Z,15.27
2023-04-17T00:59:59.037Z,14.75
2023-04-17T01:02:27.079Z,13.15
2023-04-17T01:04:54.332Z,13.95
2023-04-17T01:07:22.274Z,14.55
2023-04-17T01:09:48.964Z,14.20
2023-04-17T01:12:24.859Z,14.63
2023-04-17T01:14:56.620Z,14.35
2023-04-17T01:17:26.438Z,13.60
2023-04-17T01:19:56.135Z,14.43
2023-04-17T01:22:23.911Z,14.20
2023-04-17T01:24:55.535Z,15.23
2023-04-17T01:27:27.834Z,14.93
2023-04-17T01:29:55.457Z,14.85
2023-04-17T01:32:22.396Z,14.82
2023-04-17T01:34:50.027Z,15.32
2023-04-17T01:37:24.150Z,14.82
2023-04-17T01:39:51.044Z,15.27
2023-04-17T01:42:19.192Z,15.73
2023-04-17T01:44:46.088Z,16.10
2023-04-17T01:47:12.846Z,14.48
2023-04-17T01:49:39.691Z,18.48
2023-04-17T01:52:06.820Z,17.20
2023-04-17T01:54:34.893Z,15.48
2023-04-17T01:57:02.561Z,15.95
2023-04-17T01:59:30.507Z,14.85
2023-04-17T02:01:57.617Z,13.60
2023-04-17T02:04:24.662Z,12.73
2023-04-17T02:06:57.797Z,13.73
2023-04-17T02:09:24.477Z,12.63
2023-04-17T02:11:51.198Z,12.77
2023-04-17T02:14:21.062Z,11.75
2023-04-17T02:16:48.168Z,12.82
2023-04-17T02:19:16.283Z,13.50
2023-04-17T02:21:42.934Z,13.55
2023-04-17T02:24:09.588Z,13.10
2023-04-17T02:26:37.476Z,12.80
2023-04-17T02:29:05.268Z,11.88
2023-04-17T02:31:32.122Z,13.20
2023-04-17T02:33:58.885Z,13.90
2023-04-17T02:36:33.533Z,10.93
2023-04-17T02:39:00.429Z,12.27
2023-04-17T02:41:29.491Z,12.02
2023-04-17T02:43:58.340Z,11.32
2023-04-17T02:46:25.178Z,12.18
2023-04-17T02:48:52.377Z,12.25
2023-04-17T02:51:21.401Z,12.45
2023-04-17T02:53:49.241Z,12.30
2023-04-17T02:56:24.769Z,13.18
2023-04-17T02:58:51.635Z,12.15
2023-04-17T03:01:19.023Z,12.27
2023-04-17T03:03:47.726Z,13.32
2023-04-17T03:06:15.467Z,12.70
2023-04-17T03:08:42.320Z,11.30
2023-04-17T03:11:09.579Z,11.80
2023-04-17T03:13:37.427Z,12.63
2023-04-17T03:16:05.468Z,13.65
2023-04-17T03:18:36.034Z,12.40
2023-04-17T03:21:02.823Z,11.80
2023-04-17T03:23:29.611Z,12.15
2023-04-17T03:25:57.584Z,13.25
2023-04-17T03:28:24.772Z,12.60
2023-04-17T03:30:52.136Z,12.98
2023-04-17T03:33:19.085Z,12.98
2023-04-17T03:35:46.641Z,13.25
2023-04-17T03:38:13.960Z,13.15
2023-04-17T03:40:42.280Z,13.00
2023-04-17T03:43:10.468Z,13.30
2023-04-17T03:45:38.290Z,13.77
2023-04-17T03:48:05.307Z,14.23
2023-04-17T03:50:33.119Z,12.27
2023-04-17T03:53:00.666Z,13.23
2023-04-17T03:55:30.525Z,13.38
2023-04-17T03:57:58.753Z,13.02
2023-04-17T04:00:29.185Z,13.32
2023-04-17T04:03:00.635Z,12.13
2023-04-17T04:05:34.296Z,14.25
2023-04-17T04:08:01.722Z,11.18
2023-04-17T04:10:35.454Z,12.57
2023-04-17T04:13:02.224Z,12.20
2023-04-17T04:15:28.951Z,11.98
2023-04-17T04:18:00.146Z,12.38
2023-04-17T04:20:27.044Z,12.50
2023-04-17T04:23:04.584Z,12.57
2023-04-17T04:25:34.134Z,12.00
2023-04-17T04:28:17.994Z,12.23
2023-04-17T04:30:51.055Z,12.25
2023-04-17T04:33:22.112Z,11.27
2023-04-17T04:35:52.078Z,12.98
2023-04-17T04:38:19.226Z,12.95
2023-04-17T04:40:52.772Z,13.27
2023-04-17T04:43:22.495Z,14.23
2023-04-17T04:45:52.819Z,13.43
2023-04-17T04:48:19.846Z,12.73
2023-04-17T04:50:46.934Z,12.60
2023-04-17T04:53:13.748Z,11.60
2023-04-17T04:55:49.958Z,12.20
2023-04-17T04:58:17.946Z,12.63
2023-04-17T05:00:46.355Z,13.52
2023-04-17T05:03:19.818Z,12.88
2023-04-17T05:05:50.600Z,12.27
2023-04-17T05:08:19.303Z,12.43
2023-04-17T05:10:55.667Z,12.40
2023-04-17T05:13:23.098Z,11.73
2023-04-17T05:15:50.351Z,13.65
2023-04-17T05:18:20.812Z,13.02
2023-04-17T05:20:49.132Z,13.93
2023-04-17T05:23:16.422Z,11.38
2023-04-17T05:25:46.830Z,12.65
2023-04-17T05:28:16.773Z,12.98
2023-04-17T05:30:44.840Z,11.88
2023-04-17T05:33:19.609Z,13.52
2023-04-17T05:35:49.872Z,13.00
2023-04-17T05:38:17.430Z,13.80
2023-04-17T05:40:44.474Z,12.68
2023-04-17T05:43:12.425Z,12.95
2023-04-17T05:45:41.678Z,14.18
2023-04-17T05:48:09.762Z,13.05
2023-04-17T05:50:40.307Z,14.32
2023-04-17T05:53:11.134Z,14.70
2023-04-17T05:55:50.635Z,14.20
2023-04-17T05:58:23.638Z,14.13
2023-04-17T06:00:53.934Z,15.10
2023-04-17T06:03:21.657Z,14.60
2023-04-17T06:05:54.803Z,15.35
2023-04-17T06:08:21.858Z,15.05
2023-04-17T06:10:50.335Z,15.48
2023-04-17T06:13:17.064Z,16.33
2023-04-17T06:15:46.887Z,16.23
2023-04-17T06:18:16.445Z,16.40
2023-04-17T06:20:44.596Z,14.65
2023-04-17T06:23:11.362Z,14.93
2023-04-17T06:25:40.829Z,15.45
2023-04-17T06:28:08.072Z,16.27
2023-04-17T06:30:35.068Z,16.88
2023-04-17T06:33:02.625Z,15.73
2023-04-17T06:35:30.909Z,16.60
2023-04-17T06:38:05.090Z,15.63
2023-04-17T06:40:32.750Z,15.55
2023-04-17T06:42:59.728Z,13.40
2023-04-17T06:45:28.260Z,15.65
2023-04-17T06:47:56.317Z,15.95
2023-04-17T06:50:23.032Z,16.98
2023-04-17T06:52:50.651Z,14.30
2023-04-17T06:55:17.860Z,14.95
2023-04-17T06:57:44.612Z,16.77
2023-04-17T07:00:12.267Z,16.77
2023-04-17T07:02:39.349Z,14.68
2023-04-17T07:05:07.190Z,13.93
2023-04-17T07:07:35.720Z,16.95
2023-04-17T07:10:03.794Z,16.88
2023-04-17T07:12:32.700Z,16.65
2023-04-17T07:14:59.581Z,16.42
2023-04-17T07:17:27.747Z,14.23
2023-04-17T07:19:54.581Z,15.45
2023-04-17T07:22:21.677Z,14.57
2023-04-17T07:24:48.450Z,15.65
2023-04-17T07:27:15.193Z,15.63
2023-04-17T07:29:41.980Z,16.73
2023-04-17T07:32:08.721Z,15.68
2023-04-17T07:34:35.423Z,15.90
2023-04-17T07:37:02.189Z,16.35
2023-04-17T07:39:31.687Z,16.58
2023-04-17T07:41:58.931Z,14.55
2023-04-17T07:44:25.976Z,15.27
2023-04-17T07:46:52.935Z,16.40
2023-04-17T07:49:19.820Z,14.30
2023-04-17T07:51:46.636Z,16.55
2023-04-17T07:54:13.420Z,14.73
2023-04-17T07:56:40.480Z,15.30
2023-04-17T07:59:07.299Z,15.27
2023-04-17T08:01:34.237Z,14.88
2023-04-17T08:04:02.488Z,13.82
2023-04-17T08:06:31.534Z,15.32
2023-04-17T08:09:00.029Z,15.43
2023-04-17T08:11:27.388Z,15.15
2023-04-17T08:13:57.212Z,16.15
2023-04-17T08:16:24.256Z,15.18
2023-04-17T08:18:51.165Z,14.77
2023-04-17T08:21:19.391Z,15.13
2023-04-17T08:23:46.192Z,15.70
2023-04-17T08:26:13.302Z,13.77
2023-04-17T08:28:40.220Z,13.65
2023-04-17T08:31:08.749Z,15.10
2023-04-17T08:33:35.777Z,17.13
2023-04-17T08:36:04.279Z,15.15
2023-04-17T08:38:32.251Z,14.88
2023-04-17T08:41:08.225Z,14.23
2023-04-17T08:43:36.329Z,15.27
2023-04-17T08:46:03.653Z,15.30
2023-04-17T08:48:31.089Z,15.18
2023-04-17T08:50:58.351Z,16.23
2023-04-17T08:53:25.056Z,16.27
2023-04-17T08:55:51.989Z,14.52
2023-04-17T08:58:22.334Z,13.93
2023-04-17T09:00:49.393Z,12.93
2023-04-17T09:03:16.954Z,12.95
2023-04-17T09:05:46.507Z,13.65
2023-04-17T09:08:15.767Z,14.65
2023-04-17T09:10:45.884Z,13.93
2023-04-17T09:13:16.588Z,14.27
2023-04-17T09:15:45.688Z,12.68
2023-04-17T09:18:32.858Z,15.30
2023-04-17T09:21:01.206Z,15.27
2023-04-17T09:23:45.526Z,14.40
2023-04-17T09:26:14.339Z,16.17
2023-04-17T09:28:41.787Z,14.27
2023-04-17T09:31:18.623Z,16.98
2023-04-17T09:34:16.316Z,15.60
2023-04-17T09:36:43.912Z,15.13
2023-04-17T09:39:17.144Z,15.27
2023-04-17T09:41:44.032Z,14.35
2023-04-17T09:44:12.510Z,13.80
2023-04-17T09:46:46.170Z,15.20
2023-04-17T09:49:19.020Z,14.80
2023-04-17T09:51:47.441Z,14.57
2023-04-17T09:54:15.203Z,14.30
2023-04-17T09:56:43.316Z,15.20
2023-04-17T09:59:11.215Z,13.63
2023-04-17T10:01:38.567Z,14.88
2023-04-17T10:04:06.110Z,13.55
2023-04-17T10:06:34.195Z,16.42
2023-04-17T10:09:01.554Z,14.02
2023-04-17T10:11:34.294Z,15.02
2023-04-17T10:14:11.457Z,13.73
2023-04-17T10:16:39.958Z,14.73
2023-04-17T10:19:23.992Z,15.05
2023-04-17T10:22:19.613Z,12.32
2023-04-17T10:24:47.412Z,12.50
2023-04-17T10:27:27.011Z,13.48
2023-04-17T10:30:04.753Z,14.55
2023-04-17T10:35:01.168Z,14.05
2023-04-17T10:38:03.901Z,14.18
2023-04-17T10:40:31.795Z,13.48
2023-04-17T10:43:07.707Z,15.30
2023-04-17T10:46:12.478Z,13.07
2023-04-17T10:48:56.586Z,13.00
2023-04-17T10:51:29.397Z,14.70
2023-04-17T10:53:57.309Z,14.50
2023-04-17T10:56:39.636Z,13.23
2023-04-17T10:59:11.911Z,13.00
2023-04-17T11:01:48.717Z,14.93
2023-04-17T11:04:35.150Z,13.30
2023-04-17T11:07:02.703Z,14.13
2023-04-17T11:09:30.181Z,13.25
2023-04-17T11:12:04.365Z,14.27
2023-04-17T11:14:31.398Z,13.55
2023-04-17T11:16:58.527Z,13.27
2023-04-17T11:19:26.329Z,13.95
2023-04-17T11:21:57.487Z,15.73
2023-04-17T11:24:31.869Z,14.88
2023-04-17T11:27:00.605Z,13.23
2023-04-17T11:29:28.181Z,14.88
2023-04-17T11:31:57.666Z,14.25
2023-04-17T11:34:27.117Z,12.55
2023-04-17T11:37:01.876Z,14.07
2023-04-17T11:39:33.915Z,13.70
2023-04-17T11:42:05.292Z,14.45
2023-04-17T11:46:59.490Z,14.20
2023-04-17T11:49:27.615Z,13.75
2023-04-17T11:51:59.817Z,13.60
2023-04-17T11:54:27.896Z,15.00
2023-04-17T11:57:03.741Z,14.45
2023-04-17T11:59:38.734Z,14.38
2023-04-17T12:02:07.732Z,13.68
2023-04-17T12:04:36.741Z,14.05
2023-04-17T12:07:05.956Z,14.38
2023-04-17T12:09:36.666Z,14.13
2023-04-17T12:12:08.203Z,13.52
2023-04-17T12:14:35.972Z,14.13
2023-04-17T12:17:05.516Z,14.52
2023-04-17T12:19:34.916Z,13.65
2023-04-17T12:22:02.551Z,12.02
2023-04-17T12:24:29.379Z,14.43
2023-04-17T12:26:57.446Z,13.77
2023-04-17T12:29:36.257Z,13.93
2023-04-17T12:32:10.903Z,13.82
2023-04-17T12:34:38.042Z,14.18
2023-04-17T12:37:07.936Z,14.15
2023-04-17T12:39:35.349Z,13.50
2023-04-17T12:42:02.046Z,14.77
2023-04-17T12:44:28.909Z,13.90
2023-04-17T12:46:56.193Z,12.73
2023-04-17T12:49:23.962Z,13.68
2023-04-17T12:51:51.612Z,14.57
2023-04-17T12:54:19.193Z,13.80
2023-04-17T12:56:46.071Z,13.32
2023-04-17T12:59:13.031Z,13.65
2023-04-17T13:01:40.235Z,14.18
2023-04-17T13:04:07.787Z,13.50
2023-04-17T13:06:36.208Z,14.52
2023-04-17T13:09:03.120Z,13.25
2023-04-17T13:11:29.840Z,12.85
2023-04-17T13:13:57.222Z,13.68
2023-04-17T13:16:26.543Z,13.35
2023-04-17T13:21:22.226Z,10.57
2023-04-17T13:23:49.074Z,12.55
2023-04-17T13:26:17.014Z,11.63
2023-04-17T13:28:43.894Z,13.73
2023-04-17T13:31:11.339Z,13.20
2023-04-17T13:33:40.593Z,12.38
2023-04-17T13:36:07.797Z,12.80
2023-04-17T13:38:34.791Z,14.40
2023-04-17T13:41:01.592Z,13.38
2023-04-17T13:43:28.734Z,14.18
2023-04-17T13:45:57.138Z,11.73
2023-04-17T13:48:23.918Z,12.40
2023-04-17T13:50:50.605Z,13.93
2023-04-17T13:53:17.340Z,11.98
2023-04-17T13:55:47.248Z,12.63
2023-04-17T13:58:14.129Z,11.80
2023-04-17T14:00:41.866Z,13.23
2023-04-17T14:03:08.963Z,13.70
2023-04-17T14:05:35.905Z,15.27
2023-04-17T14:08:02.833Z,14.32
2023-04-17T14:10:32.761Z,13.32
2023-04-17T14:12:59.824Z,12.25
2023-04-17T14:15:26.763Z,13.88
2023-04-17T14:17:53.805Z,12.30
2023-04-17T14:20:20.764Z,11.73
2023-04-17T14:22:50.708Z,9.82
2023-04-17T14:25:17.430Z,11.90
2023-04-17T14:27:45.509Z,13.18
2023-04-17T14:30:12.918Z,12.15
2023-04-17T14:32:39.882Z,13.18
2023-04-17T14:35:07.063Z,14.18
2023-04-17T14:37:34.216Z,13.65
2023-04-17T14:40:01.789Z,12.60
2023-04-17T14:42:28.755Z,13.77
2023-04-17T14:44:55.624Z,13.55
2023-04-17T14:47:22.395Z,13.65
2023-04-17T14:49:49.458Z,13.90
2023-04-17T14:52:16.213Z,13.70
2023-04-17T14:54:43.013Z,14.82
2023-04-17T14:57:09.976Z,13.43
2023-04-17T14:59:37.177Z,12.98
2023-04-17T15:02:07.241Z,12.85
2023-04-17T15:04:37.136Z,13.52
2023-04-17T15:07:04.937Z,12.65
2023-04-17T15:09:32.264Z,11.75
2023-04-17T15:11:59.149Z,12.43
2023-04-17T15:14:26.414Z,12.80
2023-04-17T15:16:54.386Z,12.60
2023-04-17T15:19:21.231Z,12.25
2023-04-17T15:21:48.007Z,13.38
2023-04-17T15:24:15.106Z,12.60
2023-04-17T15:26:43.481Z,14.57
2023-04-17T15:29:12.556Z,13.82
2023-04-17T15:31:40.569Z,14.20
2023-04-17T15:34:10.283Z,13.43
2023-04-17T15:36:38.084Z,13.25
2023-04-17T15:39:05.011Z,13.45
2023-04-17T15:41:32.687Z,12.85
2023-04-17T15:44:06.573Z,12.93
2023-04-17T15:46:33.581Z,12.95
2023-04-17T15:49:21.554Z,13.23
2023-04-17T15:51:47.608Z,13.68
2023-04-17T15:54:14.479Z,13.10
2023-04-17T15:56:41.423Z,12.82
2023-04-17T15:59:08.289Z,12.55
2023-04-17T16:01:36.228Z,13.27
2023-04-17T16:04:03.899Z,13.23
2023-04-17T16:06:31.520Z,12.63
2023-04-17T16:08:58.290Z,12.63
2023-04-17T16:11:26.051Z,12.88
2023-04-17T16:13:52.883Z,12.77
2023-04-17T16:16:19.790Z,12.70
2023-04-17T16:18:47.331Z,12.32
2023-04-17T16:21:14.461Z,13.88
2023-04-17T16:23:41.200Z,14.13
2023-04-17T16:26:07.898Z,13.77
2023-04-17T16:28:35.130Z,13.23
2023-04-17T16:31:02.163Z,14.23
2023-04-17T16:33:29.046Z,13.60
2023-04-17T16:35:57.089Z,14.35
2023-04-17T16:38:23.987Z,13.00
2023-04-17T16:40:53.665Z,13.05
2023-04-17T16:43:20.643Z,13.18
2023-04-17T16:45:56.106Z,14.20
2023-04-17T16:48:23.153Z,13.60
2023-04-17T16:50:53.406Z,14.40
2023-04-17T16:53:21.329Z,12.95
2023-04-17T16:55:49.749Z,13.60
2023-04-17T16:58:16.486Z,14.45
2023-04-17T17:00:43.308Z,15.00
2023-04-17T17:03:10.459Z,14.00
2023-04-17T17:05:37.444Z,14.18
2023-04-17T17:08:04.284Z,14.60
2023-04-17T17:10:31.347Z,14.27
2023-04-17T17:12:58.149Z,13.90
2023-04-17T17:15:25.010Z,15.35
2023-04-17T17:17:52.136Z,14.18
2023-04-17T17:20:19.452Z,14.50
2023-04-17T17:22:46.753Z,14.52
2023-04-17T17:25:13.848Z,14.52
2023-04-17T17:27:40.834Z,15.00
2023-04-17T17:30:08.234Z,14.95
2023-04-17T17:32:35.152Z,13.80
2023-04-17T17:35:02.085Z,14.52
2023-04-17T17:37:29.030Z,14.07
2023-04-17T17:39:56.036Z,14.38
2023-04-17T17:42:22.941Z,14.10
2023-04-17T17:44:49.983Z,14.68
2023-04-17T17:47:16.830Z,14.93
2023-04-17T17:49:43.510Z,14.38
2023-04-17T17:52:10.959Z,14.90
2023-04-17T17:54:38.057Z,14.57
2023-04-17T17:57:05.907Z,14.52
2023-04-17T17:59:32.980Z,15.90
2023-04-17T18:02:02.009Z,13.65
2023-04-17T18:04:29.998Z,14.93
2023-04-17T18:06:56.996Z,15.80
2023-04-17T18:09:23.845Z,14.07
2023-04-17T18:11:50.567Z,14.68
2023-04-17T18:14:17.476Z,13.65
2023-04-17T18:16:44.432Z,16.23
2023-04-17T18:19:11.497Z,14.73
2023-04-17T18:21:38.385Z,15.93
2023-04-17T18:24:06.157Z,14.63
2023-04-17T18:26:33.972Z,15.55
2023-04-17T18:29:01.268Z,15.52
2023-04-17T18:31:28.532Z,17.77
2023-04-17T18:34:02.274Z,14.80
2023-04-17T18:36:30.061Z,13.77
2023-04-17T18:38:56.897Z,13.93
2023-04-17T18:41:26.275Z,14.48
2023-04-17T18:43:53.066Z,14.07
2023-04-17T18:46:19.946Z,15.27
2023-04-17T18:48:46.792Z,14.40
2023-04-17T18:51:17.680Z,14.70
2023-04-17T18:53:44.543Z,14.23
2023-04-17T18:56:13.911Z,17.33
2023-04-17T18:58:40.860Z,14.05
2023-04-17T19:01:09.481Z,14.48
2023-04-17T19:03:37.318Z,13.77
2023-04-17T19:06:04.258Z,14.57
2023-04-17T19:08:31.111Z,15.23
2023-04-17T19:10:57.809Z,13.68
2023-04-17T19:13:24.773Z,14.45
2023-04-17T19:15:51.533Z,15.40
2023-04-17T19:18:18.439Z,13.32
2023-04-17T19:20:45.656Z,12.85
2023-04-17T19:23:12.455Z,12.98
2023-04-17T19:25:39.579Z,14.68
2023-04-17T19:28:06.543Z,14.30
2023-04-17T19:30:33.601Z,13.02
2023-04-17T19:33:00.666Z,13.27
2023-04-17T19:35:27.674Z,14.38
2023-04-17T19:37:54.585Z,14.32
2023-04-17T19:40:25.069Z,14.25
2023-04-17T19:42:52.682Z,13.18
2023-04-17T19:45:20.875Z,13.85
2023-04-17T19:47:55.077Z,14.50
2023-04-17T19:50:29.183Z,13.43
2023-04-17T19:52:57.083Z,13.45
2023-04-17T19:55:24.104Z,12.93
2023-04-17T19:57:52.348Z,13.68
2023-04-17T20:00:19.590Z,14.45
2023-04-17T20:02:47.171Z,15.05
2023-04-17T20:05:14.068Z,13.20
2023-04-17T20:07:40.909Z,13.60
2023-04-17T20:10:08.211Z,13.63
2023-04-17T20:12:35.180Z,14.40
2023-04-17T20:15:02.307Z,11.82
2023-04-17T20:17:29.261Z,12.57
2023-04-17T20:19:56.125Z,14.00
2023-04-17T20:22:23.445Z,13.93
2023-04-17T20:24:50.953Z,13.18
2023-04-17T20:27:18.233Z,14.70
2023-04-17T20:29:45.484Z,13.32
2023-04-17T20:32:12.359Z,14.35
2023-04-17T20:34:40.026Z,14.20
2023-04-17T20:37:06.896Z,14.73
2023-04-17T20:39:33.700Z,14.70
2023-04-17T20:42:01.793Z,13.18
2023-04-17T20:44:28.688Z,13.63
2023-04-17T20:46:55.549Z,14.32
2023-04-17T20:49:22.532Z,13.70
2023-04-17T20:51:49.490Z,14.88
2023-04-17T20:54:16.422Z,13.73
2023-04-17T20:56:44.388Z,14.45
2023-04-17T20:59:11.736Z,13.55
2023-04-17T21:01:38.564Z,13.15
2023-04-17T21:04:05.913Z,14.45
2023-04-17T21:06:32.743Z,14.13
2023-04-17T21:08:59.761Z,14.10
2023-04-17T21:11:26.517Z,13.75
2023-04-17T21:13:54.119Z,13.30
2023-04-17T21:16:21.144Z,13.35
2023-04-17T21:18:48.327Z,13.00
2023-04-17T21:21:15.079Z,13.23
2023-04-17T21:23:41.972Z,13.45
2023-04-17T21:26:09.269Z,13.23
2023-04-17T21:28:38.936Z,12.57
2023-04-17T21:31:10.271Z,12.32
2023-04-17T21:33:37.629Z,13.20
2023-04-17T21:36:04.894Z,12.05
2023-04-17T21:38:31.825Z,12.20
2023-04-17T21:40:58.797Z,13.70
2023-04-17T21:43:25.815Z,11.52
2023-04-17T21:45:52.945Z,12.23
2023-04-17T21:48:19.838Z,11.55
2023-04-17T21:50:46.807Z,13.15
2023-04-17T21:53:13.664Z,12.73
2023-04-17T21:55:40.797Z,12.05
2023-04-17T21:58:07.997Z,12.93
2023-04-17T22:00:34.950Z,12.75
2023-04-17T22:03:01.853Z,12.35
2023-04-17T22:05:28.646Z,12.35
2023-04-17T22:07:55.823Z,11.82
2023-04-17T22:10:23.755Z,12.20
2023-04-17T22:12:51.412Z,11.02
2023-04-17T22:15:18.639Z,11.98
2023-04-17T22:17:45.814Z,12.07
2023-04-17T22:20:50.545Z,11.82
2023-04-17T22:23:36.084Z,11.60
2023-04-17T22:26:59.056Z,12.00
2023-04-17T22:30:04.191Z,11.05
2023-04-17T22:33:27.987Z,11.07
2023-04-17T22:36:13.661Z,11.70
2023-04-17T22:39:18.311Z,10.77
2023-04-17T22:41:45.358Z,9.75
2023-04-17T22:44:49.434Z,9.20
2023-04-17T22:47:35.357Z,9.05
2023-04-17T22:50:22.361Z,10.52
2023-04-17T22:53:07.980Z,9.95
2023-04-17T22:56:12.388Z,10.68
2023-04-17T22:59:35.535Z,8.95
2023-04-17T23:02:40.185Z,9.68
2023-04-17T23:06:03.614Z,9.50
2023-04-17T23:08:49.138Z,8.95
2023-04-17T23:11:16.056Z,9.82
2023-04-17T23:13:43.099Z,9.70
2023-04-17T23:16:10.172Z,9.70
2023-04-17T23:18:39.658Z,10.18
2023-04-17T23:21:06.510Z,8.73
2023-04-17T23:23:33.451Z,9.65
2023-04-17T23:26:00.541Z,9.23
2023-04-17T23:28:30.701Z,9.52
2023-04-17T23:30:58.418Z,11.30
2023-04-17T23:33:25.682Z,8.35
2023-04-17T23:35:52.739Z,10.35
2023-04-17T23:38:20.959Z,9.23
2023-04-17T23:40:47.848Z,8.95
2023-04-17T23:43:15.416Z,9.10
2023-04-17T23:45:42.906Z,10.02
2023-04-17T23:48:09.828Z,7.38
2023-04-17T23:50:36.782Z,9.35
2023-04-17T23:53:03.809Z,9.48
2023-04-17T23:55:30.835Z,9.52
2023-04-17T23:57:58.031Z,10.27
